createdAt,value
2022-11-28T00:01:21.412Z,94899.16
2022-11-28T00:04:25.346Z,94907.53
2022-11-28T00:07:28.305Z,94913.00
2022-11-28T00:10:32.963Z,94913.66
2022-11-28T00:13:37.862Z,94914.19
2022-11-28T00:16:41.828Z,94928.72
2022-11-28T00:19:45.578Z,94927.31
2022-11-28T00:22:49.465Z,94928.94
2022-11-28T00:26:15.830Z,94923.13
2022-11-28T00:29:19.035Z,94932.47
2022-11-28T00:32:22.687Z,94936.78
2022-11-28T00:35:25.720Z,94929.13
2022-11-28T00:38:28.974Z,94926.97
2022-11-28T00:41:36.364Z,94932.78
2022-11-28T00:44:39.631Z,94927.69
2022-11-28T00:47:43.933Z,94932.63
2022-11-28T00:50:46.996Z,94946.09
2022-11-28T00:53:51.491Z,94944.78
2022-11-28T00:56:55.153Z,94952.78
2022-11-28T00:59:58.775Z,94960.34
2022-11-28T01:03:01.685Z,94967.97
2022-11-28T01:06:07.091Z,94976.06
2022-11-28T01:09:16.286Z,94962.72
2022-11-28T01:12:19.253Z,94975.34
2022-11-28T01:15:22.243Z,94968.81
2022-11-28T01:18:26.388Z,94973.63
2022-11-28T01:21:30.348Z,94970.53
2022-11-28T01:24:35.094Z,94977.97
2022-11-28T01:27:38.092Z,94983.13
2022-11-28T01:30:41.632Z,94998.06
2022-11-28T01:33:44.894Z,94998.81
2022-11-28T01:36:48.630Z,95005.13
2022-11-28T01:39:51.587Z,94998.19
2022-11-28T01:42:55.634Z,95003.22
2022-11-28T01:45:59.414Z,95004.41
2022-11-28T01:49:27.218Z,94997.56
2022-11-28T01:52:31.053Z,94994.19
2022-11-28T01:55:40.779Z,94997.44
2022-11-28T01:58:47.945Z,94998.63
2022-11-28T02:01:51.467Z,95006.16
2022-11-28T02:04:54.574Z,94995.09
2022-11-28T02:07:57.936Z,95005.31
2022-11-28T02:11:10.365Z,94995.91
2022-11-28T02:14:50.991Z,95000.47
2022-11-28T02:18:19.127Z,95009.41
2022-11-28T02:21:55.834Z,94997.63
2022-11-28T02:25:20.597Z,95007.34
2022-11-28T02:28:45.169Z,95007.88
2022-11-28T02:32:24.802Z,95020.50
2022-11-28T02:36:08.734Z,95014.88
2022-11-28T02:39:36.561Z,95009.16
2022-11-28T02:43:11.015Z,95013.22
2022-11-28T02:46:16.288Z,95013.09
2022-11-28T02:49:31.920Z,95016.44
2022-11-28T02:52:50.109Z,95017.22
2022-11-28T02:55:54.349Z,95012.69
2022-11-28T02:58:58.031Z,95017.50
2022-11-28T03:02:03.096Z,95025.91
2022-11-28T03:05:29.752Z,95021.91
2022-11-28T03:08:36.144Z,95016.50
2022-11-28T03:11:55.445Z,95011.75
2022-11-28T03:15:10.389Z,95009.84
2022-11-28T03:18:16.577Z,95017.44
2022-11-28T03:21:34.497Z,95019.28
2022-11-28T03:24:47.715Z,95013.66
2022-11-28T03:28:14.320Z,95003.03
2022-11-28T03:31:24.127Z,94997.84
2022-11-28T03:34:41.908Z,95007.56
2022-11-28T03:38:00.571Z,95010.53
2022-11-28T03:41:10.258Z,95006.44
2022-11-28T03:44:25.556Z,95005.03
2022-11-28T03:47:33.714Z,95003.88
2022-11-28T03:50:43.764Z,95008.66
2022-11-28T03:53:59.903Z,95007.38
2022-11-28T03:57:18.387Z,94997.28
2022-11-28T04:00:23.471Z,94988.69
2022-11-28T04:04:04.586Z,94989.25
2022-11-28T04:07:39.350Z,94991.44
2022-11-28T04:10:48.905Z,94984.66
2022-11-28T04:14:05.332Z,94996.63
2022-11-28T04:17:22.379Z,94987.94
2022-11-28T04:20:37.139Z,94983.06
2022-11-28T04:23:43.334Z,94977.91
2022-11-28T04:27:06.123Z,94987.06
2022-11-28T04:30:13.152Z,94988.38
2022-11-28T04:33:19.862Z,94981.97
2022-11-28T04:36:26.456Z,94972.88
2022-11-28T04:39:33.286Z,94979.94
2022-11-28T04:42:43.333Z,94975.44
2022-11-28T04:45:51.961Z,94971.47
2022-11-28T04:48:56.036Z,94971.78
2022-11-28T04:52:04.642Z,94971.19
2022-11-28T04:55:11.748Z,94963.75
2022-11-28T04:58:25.510Z,94966.94
2022-11-28T05:01:32.456Z,94964.84
2022-11-28T05:04:38.922Z,94958.19
2022-11-28T05:07:43.149Z,94947.56
2022-11-28T05:10:47.623Z,94943.41
2022-11-28T05:13:51.725Z,94944.34
2022-11-28T05:16:55.645Z,94946.25
2022-11-28T05:19:59.884Z,94946.00
2022-11-28T05:23:04.315Z,94950.50
2022-11-28T05:26:20.113Z,94944.25
2022-11-28T05:29:25.512Z,94942.25
2022-11-28T05:32:32.873Z,94941.72
2022-11-28T05:35:40.401Z,94944.34
2022-11-28T05:38:45.305Z,94937.75
2022-11-28T05:41:48.967Z,94938.56
2022-11-28T05:44:53.640Z,94939.69
2022-11-28T05:47:57.191Z,94938.06
2022-11-28T05:51:01.072Z,94935.75
2022-11-28T05:54:05.044Z,94930.03
2022-11-28T05:57:09.056Z,94932.16
2022-11-28T06:00:14.930Z,94933.38
2022-11-28T06:03:19.053Z,94929.94
2022-11-28T06:06:23.284Z,94924.69
2022-11-28T06:09:27.447Z,94925.25
2022-11-28T06:12:32.086Z,94915.09
2022-11-28T06:15:38.248Z,94925.00
2022-11-28T06:18:43.107Z,94919.44
2022-11-28T06:21:47.295Z,94913.56
2022-11-28T06:24:51.115Z,94917.81
2022-11-28T06:27:54.473Z,94912.75
2022-11-28T06:30:58.084Z,94923.28
2022-11-28T06:34:02.112Z,94916.03
2022-11-28T06:37:05.780Z,94913.09
2022-11-28T06:40:09.842Z,94921.81
2022-11-28T06:43:13.880Z,94918.31
2022-11-28T06:46:20.815Z,94916.22
2022-11-28T06:49:23.796Z,94911.94
2022-11-28T06:52:27.501Z,94920.63
2022-11-28T06:55:31.053Z,94923.44
2022-11-28T06:58:34.842Z,94927.16
2022-11-28T07:01:38.690Z,94933.03
2022-11-28T07:04:42.747Z,94928.25
2022-11-28T07:07:53.795Z,94930.22
2022-11-28T07:10:59.335Z,94927.84
2022-11-28T07:14:03.725Z,94924.97
2022-11-28T07:17:07.800Z,94918.97
2022-11-28T07:20:11.969Z,94931.16
2022-11-28T07:23:15.908Z,94924.00
2022-11-28T07:26:22.163Z,94926.81
2022-11-28T07:29:26.194Z,94929.13
2022-11-28T07:32:29.917Z,94927.00
2022-11-28T07:35:36.987Z,94929.50
2022-11-28T07:38:39.846Z,94937.13
2022-11-28T07:41:43.044Z,94938.19
2022-11-28T07:44:46.730Z,94939.81
2022-11-28T07:47:50.706Z,94934.09
2022-11-28T07:50:54.238Z,94928.78
2022-11-28T07:53:58.345Z,94936.75
2022-11-28T07:57:12.561Z,94930.28
2022-11-28T08:00:18.351Z,94937.19
2022-11-28T08:03:22.321Z,94951.34
2022-11-28T08:06:29.945Z,94942.00
2022-11-28T08:09:33.666Z,94957.06
2022-11-28T08:12:37.737Z,94952.72
2022-11-28T08:15:41.554Z,94949.53
2022-11-28T08:18:45.681Z,94960.31
2022-11-28T08:21:49.360Z,94965.13
2022-11-28T08:24:53.207Z,94964.44
2022-11-28T08:27:56.759Z,94960.47
2022-11-28T08:31:02.514Z,94960.63
2022-11-28T08:34:08.545Z,94958.22
2022-11-28T08:37:12.502Z,94965.78
2022-11-28T08:40:15.958Z,94962.47
2022-11-28T08:43:20.393Z,94967.56
2022-11-28T08:46:24.109Z,94970.22
2022-11-28T08:49:28.107Z,94962.44
2022-11-28T08:52:31.438Z,94974.19
2022-11-28T08:55:39.174Z,94973.13
2022-11-28T08:58:45.647Z,94972.47
2022-11-28T09:01:49.633Z,94975.28
2022-11-28T09:04:52.625Z,94975.13
2022-11-28T09:07:57.242Z,94978.50
2022-11-28T09:11:00.824Z,94982.53
2022-11-28T09:14:04.851Z,94974.25
2022-11-28T09:17:08.930Z,94977.97
2022-11-28T09:20:14.246Z,94979.94
2022-11-28T09:23:17.983Z,94982.91
2022-11-28T09:26:23.634Z,94987.25
2022-11-28T09:29:27.768Z,94981.19
2022-11-28T09:32:31.805Z,94976.81
2022-11-28T09:35:38.220Z,94972.72
2022-11-28T09:38:41.735Z,94972.06
2022-11-28T09:42:08.163Z,94982.84
2022-11-28T09:45:18.657Z,94989.72
2022-11-28T09:48:42.461Z,94988.44
2022-11-28T09:51:54.364Z,94997.03
2022-11-28T09:55:06.963Z,94993.28
2022-11-28T09:58:35.813Z,94996.41
2022-11-28T10:01:44.404Z,94996.72
2022-11-28T10:04:48.462Z,95002.53
2022-11-28T10:07:55.258Z,95006.31
2022-11-28T10:11:36.130Z,95006.19
2022-11-28T10:14:48.368Z,95013.19
2022-11-28T10:18:27.375Z,95009.00
2022-11-28T10:21:47.478Z,95014.91
2022-11-28T10:24:58.972Z,95020.06
2022-11-28T10:28:05.674Z,95014.47
2022-11-28T10:31:29.434Z,95017.38
2022-11-28T10:34:54.106Z,95028.53
2022-11-28T10:37:57.787Z,95033.59
2022-11-28T10:41:25.909Z,95036.34
2022-11-28T10:44:35.940Z,95033.63
2022-11-28T10:48:22.966Z,95026.03
2022-11-28T10:51:49.960Z,95035.59
2022-11-28T10:55:04.887Z,95040.00
2022-11-28T10:58:23.638Z,95048.88
2022-11-28T11:01:35.454Z,95040.13
2022-11-28T11:04:40.178Z,95044.47
2022-11-28T11:07:56.948Z,95048.38
2022-11-28T11:11:18.525Z,95039.94
2022-11-28T11:14:42.924Z,95044.16
2022-11-28T11:17:46.126Z,95044.81
2022-11-28T11:20:49.789Z,95048.03
2022-11-28T11:24:13.819Z,95040.63
2022-11-28T11:27:22.168Z,95034.91
2022-11-28T11:30:39.091Z,95042.31
2022-11-28T11:33:43.153Z,95026.66
2022-11-28T11:36:47.398Z,95038.56
2022-11-28T11:39:53.980Z,95038.16
2022-11-28T11:43:00.527Z,95035.88
2022-11-28T11:46:14.541Z,95038.16
2022-11-28T11:49:33.335Z,95038.00
2022-11-28T11:52:36.235Z,95038.28
2022-11-28T11:56:03.082Z,95030.81
2022-11-28T11:59:20.984Z,95029.44
2022-11-28T12:02:35.109Z,95028.97
2022-11-28T12:09:40.016Z,95025.19
2022-11-28T12:12:43.041Z,95023.19
2022-11-28T12:16:24.158Z,95023.19
2022-11-28T12:20:05.881Z,95022.25
2022-11-28T12:23:30.021Z,95023.63
2022-11-28T12:27:40.473Z,95020.66
2022-11-28T12:30:55.294Z,95022.03
2022-11-28T12:34:29.257Z,95020.88
2022-11-28T12:41:45.552Z,95028.63
2022-11-28T12:45:03.884Z,95026.94
2022-11-28T12:48:16.974Z,95029.88
2022-11-28T12:51:37.114Z,95025.41
2022-11-28T12:54:40.519Z,95028.63
2022-11-28T12:58:05.477Z,95028.91
2022-11-28T13:01:41.379Z,95020.13
2022-11-28T13:05:02.245Z,95017.03
2022-11-28T13:08:17.930Z,95012.47
2022-11-28T13:11:50.840Z,95020.53
2022-11-28T13:15:15.587Z,95016.44
2022-11-28T13:18:40.423Z,95023.63
2022-11-28T13:21:51.384Z,95025.78
2022-11-28T13:25:01.211Z,95023.50
2022-11-28T13:28:24.298Z,95021.16
2022-11-28T13:31:32.707Z,95015.91
2022-11-28T13:34:36.494Z,95019.31
2022-11-28T13:38:35.965Z,95018.13
2022-11-28T13:45:34.255Z,95016.16
2022-11-28T13:52:20.254Z,95014.44
2022-11-28T13:56:11.374Z,95014.97
2022-11-28T13:59:21.856Z,95008.78
2022-11-28T14:02:28.604Z,95013.81
2022-11-28T14:05:36.468Z,95015.59
2022-11-28T14:08:43.151Z,95023.63
2022-11-28T14:11:54.996Z,95022.47
2022-11-28T14:15:35.545Z,95022.59
2022-11-28T14:19:12.477Z,95018.44
2022-11-28T14:22:28.634Z,95016.25
2022-11-28T14:25:40.470Z,95012.41
2022-11-28T14:28:46.210Z,95011.75
2022-11-28T14:32:21.892Z,95015.53
2022-11-28T14:35:38.346Z,95004.06
2022-11-28T14:38:42.938Z,95006.22
2022-11-28T14:42:06.098Z,95017.44
2022-11-28T14:45:54.482Z,95005.59
2022-11-28T14:49:01.601Z,95010.25
2022-11-28T14:52:41.042Z,95008.97
2022-11-28T14:55:48.299Z,95010.41
2022-11-28T14:58:57.923Z,95014.91
2022-11-28T15:02:14.411Z,95007.44
2022-11-28T15:05:35.531Z,94997.94
2022-11-28T15:08:52.449Z,95010.84
2022-11-28T15:12:37.903Z,95016.69
2022-11-28T15:15:49.688Z,95004.09
2022-11-28T15:18:58.977Z,94995.31
2022-11-28T15:22:04.434Z,95002.31
2022-11-28T15:25:26.599Z,95001.22
2022-11-28T15:28:34.965Z,94994.53
2022-11-28T15:31:38.786Z,94997.94
2022-11-28T15:34:43.270Z,94995.94
2022-11-28T15:37:52.490Z,94979.28
2022-11-28T15:40:57.521Z,94989.53
2022-11-28T15:44:00.885Z,94982.53
2022-11-28T15:47:06.644Z,94979.88
2022-11-28T15:50:41.763Z,94970.19
2022-11-28T15:53:45.344Z,94973.13
2022-11-28T15:56:59.118Z,94979.03
2022-11-28T16:00:06.141Z,94975.66
2022-11-28T16:03:21.946Z,94982.88
2022-11-28T16:06:29.625Z,94987.63
2022-11-28T16:09:37.665Z,94978.41
2022-11-28T16:12:42.654Z,94978.41
2022-11-28T16:15:50.822Z,94977.25
2022-11-28T16:19:02.400Z,94968.69
2022-11-28T16:22:11.344Z,94979.06
2022-11-28T16:25:26.330Z,94969.84
2022-11-28T16:28:38.640Z,94968.94
2022-11-28T16:31:45.051Z,94967.63
2022-11-28T16:34:51.658Z,94961.25
2022-11-28T16:38:05.754Z,94956.50
2022-11-28T16:41:26.479Z,94953.09
2022-11-28T16:44:30.617Z,94954.97
2022-11-28T16:47:34.794Z,94947.63
2022-11-28T16:50:39.466Z,94949.69
2022-11-28T16:53:42.466Z,94942.59
2022-11-28T16:56:48.197Z,94945.94
2022-11-28T16:59:53.378Z,94927.06
2022-11-28T17:02:57.278Z,94933.34
2022-11-28T17:06:01.080Z,94917.44
2022-11-28T17:09:12.898Z,94917.22
2022-11-28T17:12:29.768Z,94917.59
2022-11-28T17:15:33.796Z,94920.09
2022-11-28T17:18:37.323Z,94923.53
2022-11-28T17:21:51.755Z,94918.63
2022-11-28T17:25:00.043Z,94919.31
2022-11-28T17:28:04.048Z,94914.94
2022-11-28T17:31:07.427Z,94923.44
2022-11-28T17:34:22.566Z,94910.22
2022-11-28T17:37:26.637Z,94918.75
2022-11-28T17:40:37.525Z,94922.81
2022-11-28T17:43:40.590Z,94910.31
2022-11-28T17:46:44.732Z,94908.50
2022-11-28T17:49:48.645Z,94902.66
2022-11-28T17:52:52.757Z,94905.09
2022-11-28T17:55:59.584Z,94895.81
2022-11-28T17:59:06.561Z,94899.81
2022-11-28T18:02:11.868Z,94893.78
2022-11-28T18:05:17.464Z,94887.38
2022-11-28T18:08:22.278Z,94887.38
2022-11-28T18:11:29.017Z,94885.66
2022-11-28T18:14:38.092Z,94878.66
2022-11-28T18:17:44.148Z,94877.53
2022-11-28T18:20:48.412Z,94880.56
2022-11-28T18:23:52.778Z,94872.63
2022-11-28T18:26:57.076Z,94879.63
2022-11-28T18:30:00.929Z,94869.03
2022-11-28T18:33:04.510Z,94870.94
2022-11-28T18:36:19.341Z,94877.16
2022-11-28T18:39:24.027Z,94865.44
2022-11-28T18:42:27.887Z,94865.94
2022-11-28T18:45:32.317Z,94868.97
2022-11-28T18:48:41.294Z,94868.97
2022-11-28T18:51:45.260Z,94864.44
2022-11-28T18:54:48.846Z,94871.88
2022-11-28T18:57:53.846Z,94863.31
2022-11-28T19:00:57.453Z,94854.44
2022-11-28T19:04:07.848Z,94845.72
2022-11-28T19:07:11.814Z,94835.50
2022-11-28T19:10:15.295Z,94835.50
2022-11-28T19:13:18.541Z,94836.31
2022-11-28T19:16:27.870Z,94829.16
2022-11-28T19:19:32.177Z,94822.41
2022-11-28T19:22:37.062Z,94810.88
2022-11-28T19:25:40.404Z,94817.47
2022-11-28T19:28:44.343Z,94818.63
2022-11-28T19:31:48.200Z,94811.06
2022-11-28T19:34:54.413Z,94815.03
2022-11-28T19:37:58.401Z,94805.75
2022-11-28T19:41:13.355Z,94804.09
2022-11-28T19:44:17.613Z,94790.88
2022-11-28T19:47:21.067Z,94796.72
2022-11-28T19:50:24.925Z,94790.13
2022-11-28T19:53:30.704Z,94791.84
2022-11-28T19:56:34.362Z,94788.63
2022-11-28T19:59:38.914Z,94775.00
2022-11-28T20:02:42.798Z,94769.34
2022-11-28T20:05:46.790Z,94765.00
2022-11-28T20:08:51.791Z,94752.16
2022-11-28T20:11:55.210Z,94756.16
2022-11-28T20:14:59.146Z,94761.22
2022-11-28T20:18:03.060Z,94752.34
2022-11-28T20:21:10.278Z,94753.66
2022-11-28T20:24:13.868Z,94757.44
2022-11-28T20:27:17.421Z,94751.03
2022-11-28T20:30:21.103Z,94752.38
2022-11-28T20:33:25.625Z,94746.91
2022-11-28T20:36:31.314Z,94739.72
2022-11-28T20:39:34.915Z,94736.31
2022-11-28T20:42:40.157Z,94737.84
2022-11-28T20:45:44.066Z,94739.94
2022-11-28T20:48:48.500Z,94739.56
2022-11-28T20:51:52.034Z,94739.72
2022-11-28T20:54:56.199Z,94731.41
2022-11-28T20:58:00.113Z,94732.53
2022-11-28T21:01:04.457Z,94725.56
2022-11-28T21:04:10.042Z,94721.97
2022-11-28T21:07:13.935Z,94727.66
2022-11-28T21:10:17.665Z,94723.50
2022-11-28T21:13:21.604Z,94726.69
2022-11-28T21:16:30.345Z,94724.06
2022-11-28T21:19:34.464Z,94722.56
2022-11-28T21:22:37.281Z,94709.75
2022-11-28T21:25:42.290Z,94706.91
2022-11-28T21:28:47.415Z,94701.63
2022-11-28T21:31:50.710Z,94700.69
2022-11-28T21:34:56.392Z,94700.84
2022-11-28T21:38:02.337Z,94700.84
2022-11-28T21:41:06.496Z,94690.66
2022-11-28T21:44:10.184Z,94685.38
2022-11-28T21:47:14.133Z,94680.66
2022-11-28T21:50:18.074Z,94681.97
2022-11-28T21:53:20.944Z,94678.75
2022-11-28T21:56:24.898Z,94673.84
2022-11-28T21:59:29.668Z,94675.56
2022-11-28T22:02:33.304Z,94667.31
2022-11-28T22:05:37.665Z,94669.94
2022-11-28T22:08:40.576Z,94669.53
2022-11-28T22:11:44.441Z,94661.63
2022-11-28T22:14:47.748Z,94661.97
2022-11-28T22:17:51.846Z,94654.81
2022-11-28T22:21:22.343Z,94656.50
2022-11-28T22:24:28.827Z,94652.91
2022-11-28T22:27:33.203Z,94649.69
2022-11-28T22:30:38.841Z,94653.88
2022-11-28T22:33:42.666Z,94638.19
2022-11-28T22:36:46.212Z,94638.56
2022-11-28T22:39:50.320Z,94632.53
2022-11-28T22:42:56.531Z,94653.09
2022-11-28T22:45:59.700Z,94640.44
2022-11-28T22:49:04.274Z,94631.00
2022-11-28T22:52:07.510Z,94629.06
2022-11-28T22:55:10.543Z,94622.06
2022-11-28T22:58:14.559Z,94632.25
2022-11-28T23:01:23.300Z,94633.19
2022-11-28T23:04:27.311Z,94634.91
2022-11-28T23:07:30.944Z,94628.72
2022-11-28T23:10:36.966Z,94626.47
2022-11-28T23:13:41.889Z,94631.00
2022-11-28T23:16:46.299Z,94625.72
2022-11-28T23:19:50.386Z,94627.22
2022-11-28T23:22:53.984Z,94616.31
2022-11-28T23:25:58.995Z,94620.28
2022-11-28T23:29:05.349Z,94620.06
2022-11-28T23:32:10.166Z,94615.16
2022-11-28T23:35:14.530Z,94608.00
2022-11-28T23:38:19.281Z,94611.38
2022-11-28T23:41:22.890Z,94614.94
2022-11-28T23:44:25.781Z,94618.31
2022-11-28T23:47:28.661Z,94621.19
2022-11-28T23:50:32.491Z,94609.13
2022-11-28T23:53:37.616Z,94612.53
2022-11-28T23:56:42.836Z,94614.63
2022-11-28T23:59:46.767Z,94615.53
